Wyocena, WI

1:13 PM CDT on August 29, 2016 (GMT -0500)
APRSWXNET | | Change Station

Elev 836 ft 43.54 °N, 89.46 °W | Updated 30 minutes ago

Clear
Clear
83 °F
Feels Like 88 °F
N
3
Wind Variable Wind from South
Gusts 8.0 mph

Today
High -- | Low -- °F
--% Chance of Precip.
Yesterday
High -- | Low -- °F
Precip. -- in
Pressure 30.25 in
Visibility 10.0 miles
Clouds Clear
Heat Index 88 °F
Dew Point 72 °F
Humidity 69%
Rainfall in
Snow Depth Not available.
6:18 AM 7:36 PM
Waning Crescent, 7% visible
METAR KDLL 291750Z AUTO 20003KT 10SM CLR 27/20 A3025 RMK AO2 T02720201 10272 20204
Pressure 30.25 in
Visibility 10.0 miles
Clouds Clear
Heat Index 88 °F
Dew Point 72 °F
Humidity 69%
Rainfall in
Snow Depth Not available.
6:18 AM 7:36 PM
Waning Crescent, 7% visible
METAR KDLL 291750Z AUTO 20003KT 10SM CLR 27/20 A3025 RMK AO2 T02720201 10272 20204

10-Day Weather Forecast

Almanac

Astronomy

Aug. 29, 2016 Rise Set
Actual Time
Civil Twilight
Nautical Twilight
Astronomical Twilight
Moon
Length of Visible Light
Length of Day
Tomorrow will be .
, % of the Moon is Illuminated

Today's Extremes

State Highs State Lows

Community

WunderPhotos

Upload Photos

1,935,685 photos uploaded!

WunderBlog® & News

Nearby

Air Quality

  Air Quality AQ Index Pollutant
Not available.

Snow Depth

Station Depth Elevation

Earthquake Activity

City Distance Mag. Time & Date
Minimum magnitude displayed is 2.5.

Coastal Water Temperatures

Place Temperature

Stations

Nearby Weather Stations

Station Location Temp. Windchill Dew Point Humidity Wind Precip. Elev Updated Type
                   

Watches & Warnings

There are currently no watches in effect.